sensor_id;sensor_type;location;lat;lon;timestamp;pressure;altitude;pressure_sealevel;temperature;humidity
75312;BME280;63906;55.686;37.532;2023-08-17T00:03:08;100295.09;;;17.11;79.18
75312;BME280;63906;55.686;37.532;2023-08-17T00:08:08;100279.78;;;17.06;79.31
75312;BME280;63906;55.686;37.532;2023-08-17T00:13:09;100263.94;;;16.93;79.93
75312;BME280;63906;55.686;37.532;2023-08-17T00:18:09;100241.56;;;16.69;80.50
75312;BME280;63906;55.686;37.532;2023-08-17T00:23:10;100286.66;;;16.89;80.95
75312;BME280;63906;55.686;37.532;2023-08-17T00:28:10;100298.50;;;16.93;80.49
75312;BME280;63906;55.686;37.532;2023-08-17T00:33:11;100254.25;;;16.67;80.60
75312;BME280;63906;55.686;37.532;2023-08-17T00:38:12;100234.16;;;16.46;80.84
75312;BME280;63906;55.686;37.532;2023-08-17T00:43:12;100269.63;;;16.65;81.53
75312;BME280;63906;55.686;37.532;2023-08-17T00:48:13;100303.31;;;16.78;81.72
75312;BME280;63906;55.686;37.532;2023-08-17T00:53:14;100276.97;;;16.63;81.78
75312;BME280;63906;55.686;37.532;2023-08-17T00:58:16;100297.38;;;16.76;81.53
75312;BME280;63906;55.686;37.532;2023-08-17T01:03:17;100287.19;;;16.66;81.54
75312;BME280;63906;55.686;37.532;2023-08-17T01:08:18;100310.03;;;16.80;82.07
75312;BME280;63906;55.686;37.532;2023-08-17T01:13:25;100300.25;;;16.74;81.82
75312;BME280;63906;55.686;37.532;2023-08-17T01:18:32;100300.47;;;16.66;82.18
75312;BME280;63906;55.686;37.532;2023-08-17T01:23:34;100284.97;;;16.56;82.30
75312;BME280;63906;55.686;37.532;2023-08-17T01:28:34;100257.47;;;16.37;82.31
75312;BME280;63906;55.686;37.532;2023-08-17T01:33:49;100292.94;;;16.56;82.93
75312;BME280;63906;55.686;37.532;2023-08-17T01:38:54;100307.47;;;16.60;82.94
75312;BME280;63906;55.686;37.532;2023-08-17T01:43:57;100298.69;;;16.53;83.62
75312;BME280;63906;55.686;37.532;2023-08-17T01:48:58;100307.84;;;16.64;83.33
75312;BME280;63906;55.686;37.532;2023-08-17T01:53:59;100314.84;;;16.58;84.30
75312;BME280;63906;55.686;37.532;2023-08-17T01:58:59;100315.25;;;16.55;83.72
75312;BME280;63906;55.686;37.532;2023-08-17T02:04:00;100309.75;;;16.50;84.08
75312;BME280;63906;55.686;37.532;2023-08-17T02:09:02;100308.56;;;16.46;84.64
75312;BME280;63906;55.686;37.532;2023-08-17T02:14:03;100303.66;;;16.43;85.04
75312;BME280;63906;55.686;37.532;2023-08-17T02:19:03;100288.56;;;16.37;84.58
75312;BME280;63906;55.686;37.532;2023-08-17T02:24:04;100313.03;;;16.52;84.98
75312;BME280;63906;55.686;37.532;2023-08-17T02:29:05;100313.44;;;16.49;84.62
75312;BME280;63906;55.686;37.532;2023-08-17T02:34:05;100315.06;;;16.50;84.75
75312;BME280;63906;55.686;37.532;2023-08-17T02:39:06;100300.38;;;16.48;84.85
75312;BME280;63906;55.686;37.532;2023-08-17T02:44:06;100325.84;;;16.62;85.61
75312;BME280;63906;55.686;37.532;2023-08-17T02:49:07;100311.75;;;16.61;85.16
75312;BME280;63906;55.686;37.532;2023-08-17T02:54:07;100313.38;;;16.62;85.31
75312;BME280;63906;55.686;37.532;2023-08-17T02:59:08;100324.78;;;16.69;85.88
75312;BME280;63906;55.686;37.532;2023-08-17T03:04:08;100323.16;;;16.75;85.36
75312;BME280;63906;55.686;37.532;2023-08-17T03:09:09;100322.47;;;16.86;85.42
75312;BME280;63906;55.686;37.532;2023-08-17T03:14:10;100332.66;;;16.96;85.52
75312;BME280;63906;55.686;37.532;2023-08-17T03:19:10;100317.13;;;16.93;85.40
75312;BME280;63906;55.686;37.532;2023-08-17T03:24:12;100315.66;;;16.97;85.48
75312;BME280;63906;55.686;37.532;2023-08-17T03:29:12;100286.66;;;16.89;85.41
75312;BME280;63906;55.686;37.532;2023-08-17T03:34:13;100305.34;;;17.07;85.32
75312;BME280;63906;55.686;37.532;2023-08-17T03:39:13;100326.94;;;17.24;85.42
75312;BME280;63906;55.686;37.532;2023-08-17T03:44:14;100326.88;;;17.31;85.81
75312;BME280;63906;55.686;37.532;2023-08-17T03:49:15;100317.00;;;17.38;85.88
75312;BME280;63906;55.686;37.532;2023-08-17T03:54:17;100315.94;;;17.45;85.71
75312;BME280;63906;55.686;37.532;2023-08-17T03:59:17;100338.50;;;17.61;85.49
75312;BME280;63906;55.686;37.532;2023-08-17T04:04:18;100317.38;;;17.66;85.06
75312;BME280;63906;55.686;37.532;2023-08-17T04:09:18;100313.06;;;17.72;84.73
75312;BME280;63906;55.686;37.532;2023-08-17T04:14:19;100324.38;;;17.86;84.83
75312;BME280;63906;55.686;37.532;2023-08-17T04:19:19;100329.81;;;17.97;84.39
75312;BME280;63906;55.686;37.532;2023-08-17T04:24:20;100325.00;;;18.06;84.54
75312;BME280;63906;55.686;37.532;2023-08-17T04:29:21;100326.50;;;18.20;84.31
75312;BME280;63906;55.686;37.532;2023-08-17T04:34:21;100330.47;;;18.29;84.13
75312;BME280;63906;55.686;37.532;2023-08-17T04:39:21;100338.06;;;18.44;84.42
75312;BME280;63906;55.686;37.532;2023-08-17T04:44:22;100337.56;;;18.54;84.17
75312;BME280;63906;55.686;37.532;2023-08-17T04:49:23;100328.38;;;18.68;83.84
75312;BME280;63906;55.686;37.532;2023-08-17T04:54:23;100308.66;;;18.69;83.52
75312;BME280;63906;55.686;37.532;2023-08-17T04:59:23;100329.78;;;19.13;83.45
75312;BME280;63906;55.686;37.532;2023-08-17T05:04:24;100337.84;;;19.36;82.38
75312;BME280;63906;55.686;37.532;2023-08-17T05:09:26;100341.03;;;19.56;81.66
75312;BME280;63906;55.686;37.532;2023-08-17T05:14:27;100339.44;;;19.79;80.77
75312;BME280;63906;55.686;37.532;2023-08-17T05:19:28;100342.34;;;20.01;79.68
75312;BME280;63906;55.686;37.532;2023-08-17T05:24:28;100331.41;;;20.14;78.96
75312;BME280;63906;55.686;37.532;2023-08-17T05:29:28;100336.81;;;20.31;78.12
75312;BME280;63906;55.686;37.532;2023-08-17T05:34:29;100335.75;;;20.43;77.45
75312;BME280;63906;55.686;37.532;2023-08-17T05:39:30;100340.56;;;20.70;76.30
75312;BME280;63906;55.686;37.532;2023-08-17T05:44:30;100317.88;;;20.73;76.10
75312;BME280;63906;55.686;37.532;2023-08-17T05:49:31;100331.81;;;21.20;73.72
75312;BME280;63906;55.686;37.532;2023-08-17T05:54:31;100300.72;;;21.02;73.68
75312;BME280;63906;55.686;37.532;2023-08-17T05:59:32;100291.34;;;21.00;73.40
75312;BME280;63906;55.686;37.532;2023-08-17T06:04:32;100330.16;;;21.47;71.62
75312;BME280;63906;55.686;37.532;2023-08-17T06:09:32;100336.47;;;21.75;69.12
75312;BME280;63906;55.686;37.532;2023-08-17T06:14:33;100336.13;;;21.88;69.68
75312;BME280;63906;55.686;37.532;2023-08-17T06:19:34;100344.47;;;21.92;69.89
75312;BME280;63906;55.686;37.532;2023-08-17T06:24:34;100325.97;;;21.90;69.82
75312;BME280;63906;55.686;37.532;2023-08-17T06:29:35;100331.41;;;21.95;69.79
75312;BME280;63906;55.686;37.532;2023-08-17T06:34:35;100331.53;;;22.06;69.13
75312;BME280;63906;55.686;37.532;2023-08-17T06:39:36;100318.34;;;22.21;67.77
75312;BME280;63906;55.686;37.532;2023-08-17T06:44:37;100331.97;;;22.36;67.62
75312;BME280;63906;55.686;37.532;2023-08-17T06:49:38;100339.66;;;22.54;65.83
75312;BME280;63906;55.686;37.532;2023-08-17T06:54:38;100335.91;;;22.77;65.99
75312;BME280;63906;55.686;37.532;2023-08-17T06:59:39;100322.91;;;22.91;65.13
75312;BME280;63906;55.686;37.532;2023-08-17T07:04:39;100324.25;;;23.21;63.29
75312;BME280;63906;55.686;37.532;2023-08-17T07:09:40;100340.50;;;23.36;62.74
75312;BME280;63906;55.686;37.532;2023-08-17T07:14:40;100330.25;;;23.33;62.42
75312;BME280;63906;55.686;37.532;2023-08-17T07:19:41;100320.03;;;23.30;62.22
75312;BME280;63906;55.686;37.532;2023-08-17T07:24:42;100332.06;;;23.54;58.48
75312;BME280;63906;55.686;37.532;2023-08-17T07:29:43;100331.03;;;23.60;59.14
75312;BME280;63906;55.686;37.532;2023-08-17T07:34:43;100332.72;;;23.72;58.13
75312;BME280;63906;55.686;37.532;2023-08-17T07:39:44;100324.19;;;23.80;57.07
75312;BME280;63906;55.686;37.532;2023-08-17T07:44:44;100305.91;;;23.82;57.27
75312;BME280;63906;55.686;37.532;2023-08-17T07:49:45;100287.09;;;23.87;55.56
75312;BME280;63906;55.686;37.532;2023-08-17T07:54:45;100324.09;;;24.17;55.08
75312;BME280;63906;55.686;37.532;2023-08-17T07:59:46;100303.09;;;24.14;55.24
75312;BME280;63906;55.686;37.532;2023-08-17T08:04:46;100316.81;;;24.12;55.73
75312;BME280;63906;55.686;37.532;2023-08-17T08:09:47;100313.97;;;24.34;53.75
75312;BME280;63906;55.686;37.532;2023-08-17T08:14:47;100314.25;;;24.38;54.58
75312;BME280;63906;55.686;37.532;2023-08-17T08:19:48;100318.06;;;24.52;54.32
75312;BME280;63906;55.686;37.532;2023-08-17T08:24:51;100291.16;;;24.57;51.60
75312;BME280;63906;55.686;37.532;2023-08-17T08:29:51;100310.59;;;24.90;50.46
75312;BME280;63906;55.686;37.532;2023-08-17T08:34:52;100301.19;;;24.92;51.05
75312;BME280;63906;55.686;37.532;2023-08-17T08:39:53;100226.03;;;24.70;50.29
75312;BME280;63906;55.686;37.532;2023-08-17T08:44:54;100274.53;;;25.21;48.30
75312;BME280;63906;55.686;37.532;2023-08-17T08:50:01;100295.25;;;25.51;48.10
75312;BME280;63906;55.686;37.532;2023-08-17T08:55:10;100270.19;;;25.46;47.82
75312;BME280;63906;55.686;37.532;2023-08-17T09:00:12;100298.19;;;25.70;48.09
75312;BME280;63906;55.686;37.532;2023-08-17T09:05:17;100261.56;;;25.54;48.69
75312;BME280;63906;55.686;37.532;2023-08-17T09:10:17;100284.13;;;25.94;48.43
75312;BME280;63906;55.686;37.532;2023-08-17T09:15:18;100282.44;;;26.08;46.30
75312;BME280;63906;55.686;37.532;2023-08-17T09:20:44;100282.41;;;26.18;45.73
75312;BME280;63906;55.686;37.532;2023-08-17T09:25:49;100278.00;;;26.33;46.23
75312;BME280;63906;55.686;37.532;2023-08-17T09:30:59;100286.75;;;26.64;44.92
75312;BME280;63906;55.686;37.532;2023-08-17T09:36:03;100253.28;;;26.65;43.21
75312;BME280;63906;55.686;37.532;2023-08-17T09:41:07;100280.88;;;26.96;43.89
75312;BME280;63906;55.686;37.532;2023-08-17T09:46:07;100282.09;;;27.14;43.38
75312;BME280;63906;55.686;37.532;2023-08-17T09:51:09;100221.56;;;27.15;42.81
75312;BME280;63906;55.686;37.532;2023-08-17T09:56:10;100269.31;;;27.53;43.01
75312;BME280;63906;55.686;37.532;2023-08-17T10:01:14;100283.53;;;27.88;42.90
75312;BME280;63906;55.686;37.532;2023-08-17T10:06:20;100274.09;;;29.36;41.46
75312;BME280;63906;55.686;37.532;2023-08-17T10:11:23;100259.81;;;32.01;36.00
75312;BME280;63906;55.686;37.532;2023-08-17T10:16:31;100271.34;;;33.75;34.78
75312;BME280;63906;55.686;37.532;2023-08-17T10:21:40;100270.72;;;35.49;32.63
75312;BME280;63906;55.686;37.532;2023-08-17T10:26:44;100260.78;;;37.45;31.58
75312;BME280;63906;55.686;37.532;2023-08-17T10:31:45;100257.06;;;39.01;28.93
75312;BME280;63906;55.686;37.532;2023-08-17T10:36:46;100232.72;;;40.36;27.40
75312;BME280;63906;55.686;37.532;2023-08-17T10:41:51;100240.72;;;41.71;25.01
75312;BME280;63906;55.686;37.532;2023-08-17T10:46:52;100244.72;;;42.60;22.92
75312;BME280;63906;55.686;37.532;2023-08-17T10:52:03;100215.88;;;42.76;20.87
75312;BME280;63906;55.686;37.532;2023-08-17T10:57:32;100242.34;;;41.79;20.10
75312;BME280;63906;55.686;37.532;2023-08-17T11:02:32;100230.50;;;41.78;19.87
75312;BME280;63906;55.686;37.532;2023-08-17T11:07:40;100222.97;;;43.84;19.89
75312;BME280;63906;55.686;37.532;2023-08-17T11:12:41;100211.53;;;44.62;18.54
75312;BME280;63906;55.686;37.532;2023-08-17T11:17:42;100216.09;;;44.17;17.68
75312;BME280;63906;55.686;37.532;2023-08-17T11:22:42;100200.56;;;44.37;17.26
75312;BME280;63906;55.686;37.532;2023-08-17T11:27:43;100187.63;;;44.75;16.94
75312;BME280;63906;55.686;37.532;2023-08-17T11:32:43;100184.94;;;45.13;16.43
75312;BME280;63906;55.686;37.532;2023-08-17T11:37:44;100192.59;;;44.43;17.22
75312;BME280;63906;55.686;37.532;2023-08-17T11:42:46;100172.38;;;43.01;17.94
75312;BME280;63906;55.686;37.532;2023-08-17T11:47:47;100175.44;;;42.39;18.34
75312;BME280;63906;55.686;37.532;2023-08-17T11:52:48;100174.72;;;41.65;18.21
75312;BME280;63906;55.686;37.532;2023-08-17T11:57:48;100168.00;;;40.63;19.02
75312;BME280;63906;55.686;37.532;2023-08-17T12:02:50;100154.09;;;40.97;19.26
75312;BME280;63906;55.686;37.532;2023-08-17T12:07:52;100145.44;;;40.21;20.31
75312;BME280;63906;55.686;37.532;2023-08-17T12:12:53;100149.50;;;41.15;19.62
75312;BME280;63906;55.686;37.532;2023-08-17T12:17:59;100148.19;;;42.55;18.39
75312;BME280;63906;55.686;37.532;2023-08-17T12:23:01;100150.28;;;40.31;20.51
75312;BME280;63906;55.686;37.532;2023-08-17T12:28:02;100144.91;;;37.94;22.19
75312;BME280;63906;55.686;37.532;2023-08-17T12:33:03;100138.28;;;37.44;23.33
75312;BME280;63906;55.686;37.532;2023-08-17T12:38:03;100123.03;;;38.40;22.56
75312;BME280;63906;55.686;37.532;2023-08-17T12:43:04;100132.94;;;39.67;20.91
75312;BME280;63906;55.686;37.532;2023-08-17T12:48:04;100124.50;;;40.94;19.57
75312;BME280;63906;55.686;37.532;2023-08-17T12:53:05;100113.41;;;42.58;18.77
75312;BME280;63906;55.686;37.532;2023-08-17T12:58:08;100137.22;;;44.18;17.27
75312;BME280;63906;55.686;37.532;2023-08-17T13:03:08;100115.28;;;44.86;16.94
75312;BME280;63906;55.686;37.532;2023-08-17T13:08:09;100130.22;;;45.03;16.70
75312;BME280;63906;55.686;37.532;2023-08-17T13:13:11;100119.84;;;45.10;16.77
75312;BME280;63906;55.686;37.532;2023-08-17T13:18:11;100121.78;;;45.14;15.88
75312;BME280;63906;55.686;37.532;2023-08-17T13:23:12;100118.75;;;45.42;15.28
75312;BME280;63906;55.686;37.532;2023-08-17T13:28:15;100116.91;;;45.59;15.63
75312;BME280;63906;55.686;37.532;2023-08-17T13:33:17;100120.09;;;44.82;16.56
75312;BME280;63906;55.686;37.532;2023-08-17T13:38:17;100114.81;;;43.80;17.52
75312;BME280;63906;55.686;37.532;2023-08-17T13:43:18;100107.56;;;40.18;20.59
75312;BME280;63906;55.686;37.532;2023-08-17T13:48:18;100081.50;;;36.66;23.03
75312;BME280;63906;55.686;37.532;2023-08-17T13:53:19;100081.28;;;34.49;25.28
75312;BME280;63906;55.686;37.532;2023-08-17T13:58:19;100119.84;;;33.72;26.64
75312;BME280;63906;55.686;37.532;2023-08-17T14:03:20;100110.94;;;33.63;26.60
75312;BME280;63906;55.686;37.532;2023-08-17T14:08:20;100106.50;;;32.82;27.77
75312;BME280;63906;55.686;37.532;2023-08-17T14:13:21;100117.03;;;32.20;27.88
75312;BME280;63906;55.686;37.532;2023-08-17T14:18:21;100104.53;;;31.75;28.06
75312;BME280;63906;55.686;37.532;2023-08-17T14:23:23;100085.75;;;31.39;28.63
75312;BME280;63906;55.686;37.532;2023-08-17T14:28:24;100107.56;;;31.17;28.07
75312;BME280;63906;55.686;37.532;2023-08-17T14:33:24;100106.22;;;30.66;28.50
75312;BME280;63906;55.686;37.532;2023-08-17T14:38:25;100100.06;;;30.07;28.84
75312;BME280;63906;55.686;37.532;2023-08-17T14:43:25;100105.81;;;29.55;30.36
75312;BME280;63906;55.686;37.532;2023-08-17T14:48:26;100104.75;;;29.15;30.73
75312;BME280;63906;55.686;37.532;2023-08-17T14:53:27;100089.13;;;28.79;31.34
75312;BME280;63906;55.686;37.532;2023-08-17T14:58:28;100111.75;;;28.56;32.46
75312;BME280;63906;55.686;37.532;2023-08-17T15:03:29;100105.13;;;28.29;32.96
75312;BME280;63906;55.686;37.532;2023-08-17T15:08:29;100131.06;;;28.16;33.63
75312;BME280;63906;55.686;37.532;2023-08-17T15:13:29;100119.94;;;27.99;33.77
75312;BME280;63906;55.686;37.532;2023-08-17T15:18:30;100137.72;;;27.86;34.32
75312;BME280;63906;55.686;37.532;2023-08-17T15:23:30;100128.88;;;27.57;35.11
75312;BME280;63906;55.686;37.532;2023-08-17T15:28:31;100141.56;;;27.37;35.63
75312;BME280;63906;55.686;37.532;2023-08-17T15:33:35;100130.75;;;26.84;36.34
75312;BME280;63906;55.686;37.532;2023-08-17T15:38:35;100150.00;;;26.78;37.25
75312;BME280;63906;55.686;37.532;2023-08-17T15:43:36;100140.06;;;26.34;37.89
75312;BME280;63906;55.686;37.532;2023-08-17T15:48:37;100155.63;;;26.08;38.88
75312;BME280;63906;55.686;37.532;2023-08-17T15:53:37;100149.34;;;25.79;39.78
75312;BME280;63906;55.686;37.532;2023-08-17T15:58:43;100119.53;;;25.39;40.56
75312;BME280;63906;55.686;37.532;2023-08-17T16:03:44;100126.59;;;25.20;41.48
75312;BME280;63906;55.686;37.532;2023-08-17T16:08:45;100132.03;;;25.00;42.15
75312;BME280;63906;55.686;37.532;2023-08-17T16:13:45;100133.94;;;24.79;43.08
75312;BME280;63906;55.686;37.532;2023-08-17T16:18:46;100130.47;;;24.48;43.85
75312;BME280;63906;55.686;37.532;2023-08-17T16:23:46;100147.91;;;24.30;44.63
75312;BME280;63906;55.686;37.532;2023-08-17T16:28:47;100156.19;;;24.03;45.30
75312;BME280;63906;55.686;37.532;2023-08-17T16:33:47;100164.47;;;23.81;46.19
75312;BME280;63906;55.686;37.532;2023-08-17T16:38:48;100134.69;;;23.35;46.94
75312;BME280;63906;55.686;37.532;2023-08-17T16:43:48;100173.31;;;23.29;47.33
75312;BME280;63906;55.686;37.532;2023-08-17T16:48:52;100149.19;;;22.87;48.98
75312;BME280;63906;55.686;37.532;2023-08-17T16:53:52;100185.09;;;22.85;49.28
75312;BME280;63906;55.686;37.532;2023-08-17T16:58:53;100163.09;;;22.51;49.78
75312;BME280;63906;55.686;37.532;2023-08-17T17:03:54;100203.06;;;22.53;50.19
75312;BME280;63906;55.686;37.532;2023-08-17T17:08:54;100160.25;;;22.09;51.05
75312;BME280;63906;55.686;37.532;2023-08-17T17:13:55;100195.19;;;22.14;51.47
75312;BME280;63906;55.686;37.532;2023-08-17T17:18:55;100193.06;;;21.94;51.78
75312;BME280;63906;55.686;37.532;2023-08-17T17:24:03;100195.34;;;21.86;52.43
75312;BME280;63906;55.686;37.532;2023-08-17T17:29:07;100191.16;;;21.68;53.21
75312;BME280;63906;55.686;37.532;2023-08-17T17:34:08;100205.84;;;21.65;53.62
75312;BME280;63906;55.686;37.532;2023-08-17T17:39:08;100204.50;;;21.46;54.58
75312;BME280;63906;55.686;37.532;2023-08-17T17:44:09;100153.34;;;21.09;55.25
75312;BME280;63906;55.686;37.532;2023-08-17T17:49:09;100192.91;;;21.23;55.64
75312;BME280;63906;55.686;37.532;2023-08-17T17:54:10;100192.69;;;21.08;55.85
75312;BME280;63906;55.686;37.532;2023-08-17T17:59:11;100172.84;;;20.87;56.56
75312;BME280;63906;55.686;37.532;2023-08-17T18:04:11;100177.28;;;20.82;56.74
75312;BME280;63906;55.686;37.532;2023-08-17T18:09:12;100193.19;;;20.88;57.63
75312;BME280;63906;55.686;37.532;2023-08-17T18:14:12;100177.84;;;20.67;58.09
75312;BME280;63906;55.686;37.532;2023-08-17T18:19:14;100196.56;;;20.67;58.90
75312;BME280;63906;55.686;37.532;2023-08-17T18:24:14;100179.22;;;20.53;59.17
75312;BME280;63906;55.686;37.532;2023-08-17T18:29:15;100205.72;;;20.54;59.43
75312;BME280;63906;55.686;37.532;2023-08-17T18:34:15;100198.91;;;20.47;59.95
75312;BME280;63906;55.686;37.532;2023-08-17T18:39:16;100204.63;;;20.38;60.72
75312;BME280;63906;55.686;37.532;2023-08-17T18:44:17;100198.25;;;20.28;60.56
75312;BME280;63906;55.686;37.532;2023-08-17T18:49:18;100184.38;;;20.14;61.05
75312;BME280;63906;55.686;37.532;2023-08-17T18:54:21;100209.91;;;20.22;61.34
75312;BME280;63906;55.686;37.532;2023-08-17T18:59:21;100207.25;;;20.22;61.95
75312;BME280;63906;55.686;37.532;2023-08-17T19:04:22;100213.78;;;20.14;62.77
75312;BME280;63906;55.686;37.532;2023-08-17T19:09:22;100211.56;;;20.11;62.93
75312;BME280;63906;55.686;37.532;2023-08-17T19:14:22;100201.00;;;20.04;63.49
75312;BME280;63906;55.686;37.532;2023-08-17T19:19:23;100194.75;;;19.99;63.73
75312;BME280;63906;55.686;37.532;2023-08-17T19:24:23;100189.91;;;19.96;64.33
75312;BME280;63906;55.686;37.532;2023-08-17T19:29:27;100197.69;;;19.97;64.59
75312;BME280;63906;55.686;37.532;2023-08-17T19:34:28;100169.50;;;19.78;65.34
75312;BME280;63906;55.686;37.532;2023-08-17T19:39:29;100156.75;;;19.68;65.63
75312;BME280;63906;55.686;37.532;2023-08-17T19:44:29;100193.19;;;19.74;66.99
75312;BME280;63906;55.686;37.532;2023-08-17T19:49:30;100176.38;;;19.62;67.14
75312;BME280;63906;55.686;37.532;2023-08-17T19:54:30;100181.72;;;19.62;67.53
75312;BME280;63906;55.686;37.532;2023-08-17T19:59:31;100207.88;;;19.60;68.00
75312;BME280;63906;55.686;37.532;2023-08-17T20:04:32;100177.56;;;19.43;68.04
75312;BME280;63906;55.686;37.532;2023-08-17T20:09:33;100224.00;;;19.65;67.32
75312;BME280;63906;55.686;37.532;2023-08-17T20:14:35;100185.69;;;19.36;68.16
75312;BME280;63906;55.686;37.532;2023-08-17T20:19:35;100213.56;;;19.40;69.02
75312;BME280;63906;55.686;37.532;2023-08-17T20:24:37;100219.22;;;19.44;68.99
75312;BME280;63906;55.686;37.532;2023-08-17T20:29:38;100212.13;;;19.37;69.27
75312;BME280;63906;55.686;37.532;2023-08-17T20:34:38;100202.75;;;19.23;70.15
75312;BME280;63906;55.686;37.532;2023-08-17T20:39:39;100218.31;;;19.26;69.71
75312;BME280;63906;55.686;37.532;2023-08-17T20:44:40;100191.94;;;19.06;69.98
75312;BME280;63906;55.686;37.532;2023-08-17T20:49:41;100229.22;;;19.13;70.24
75312;BME280;63906;55.686;37.532;2023-08-17T20:54:42;100234.09;;;19.16;70.33
75312;BME280;63906;55.686;37.532;2023-08-17T20:59:43;100188.94;;;18.91;70.83
75312;BME280;63906;55.686;37.532;2023-08-17T21:04:44;100215.25;;;18.99;71.00
75312;BME280;63906;55.686;37.532;2023-08-17T21:09:44;100245.22;;;19.01;71.54
75312;BME280;63906;55.686;37.532;2023-08-17T21:14:45;100241.38;;;18.97;71.12
75312;BME280;63906;55.686;37.532;2023-08-17T21:19:47;100239.97;;;18.95;71.51
75312;BME280;63906;55.686;37.532;2023-08-17T21:24:47;100245.75;;;18.92;71.91
75312;BME280;63906;55.686;37.532;2023-08-17T21:29:49;100202.81;;;18.70;72.17
75312;BME280;63906;55.686;37.532;2023-08-17T21:34:50;100236.69;;;18.81;72.75
75312;BME280;63906;55.686;37.532;2023-08-17T21:39:50;100236.25;;;18.84;73.15
75312;BME280;63906;55.686;37.532;2023-08-17T21:44:51;100229.03;;;18.73;72.84
75312;BME280;63906;55.686;37.532;2023-08-17T21:49:52;100220.22;;;18.72;73.10
75312;BME280;63906;55.686;37.532;2023-08-17T21:54:52;100231.19;;;18.64;74.22
75312;BME280;63906;55.686;37.532;2023-08-17T21:59:53;100196.13;;;18.49;73.89
75312;BME280;63906;55.686;37.532;2023-08-17T22:04:54;100225.13;;;18.57;73.90
75312;BME280;63906;55.686;37.532;2023-08-17T22:09:54;100202.34;;;18.43;74.27
75312;BME280;63906;55.686;37.532;2023-08-17T22:14:55;100246.47;;;18.57;74.71
75312;BME280;63906;55.686;37.532;2023-08-17T22:19:55;100215.09;;;18.41;73.99
75312;BME280;63906;55.686;37.532;2023-08-17T22:24:56;100233.91;;;18.46;74.23
75312;BME280;63906;55.686;37.532;2023-08-17T22:29:56;100235.53;;;18.47;74.29
75312;BME280;63906;55.686;37.532;2023-08-17T22:34:57;100203.69;;;18.22;74.63
75312;BME280;63906;55.686;37.532;2023-08-17T22:39:57;100215.88;;;18.29;75.57
75312;BME280;63906;55.686;37.532;2023-08-17T22:44:58;100214.81;;;18.30;75.67
75312;BME280;63906;55.686;37.532;2023-08-17T22:49:59;100230.97;;;18.36;75.57
75312;BME280;63906;55.686;37.532;2023-08-17T22:54:59;100233.34;;;18.25;76.14
75312;BME280;63906;55.686;37.532;2023-08-17T23:00:00;100217.81;;;18.22;76.09
75312;BME280;63906;55.686;37.532;2023-08-17T23:05:00;100222.13;;;18.05;76.72
75312;BME280;63906;55.686;37.532;2023-08-17T23:10:01;100220.13;;;18.00;76.72
75312;BME280;63906;55.686;37.532;2023-08-17T23:15:02;100247.44;;;18.14;76.64
75312;BME280;63906;55.686;37.532;2023-08-17T23:20:03;100229.06;;;18.06;77.19
75312;BME280;63906;55.686;37.532;2023-08-17T23:25:04;100247.72;;;18.06;77.76
75312;BME280;63906;55.686;37.532;2023-08-17T23:30:05;100246.56;;;18.02;77.15
75312;BME280;63906;55.686;37.532;2023-08-17T23:35:06;100258.38;;;18.06;77.82
75312;BME280;63906;55.686;37.532;2023-08-17T23:40:07;100259.13;;;17.95;78.12
75312;BME280;63906;55.686;37.532;2023-08-17T23:45:08;100276.00;;;18.07;77.57
75312;BME280;63906;55.686;37.532;2023-08-17T23:50:09;100294.94;;;18.17;78.27
75312;BME280;63906;55.686;37.532;2023-08-17T23:55:09;100283.31;;;18.12;77.39
